createdAt,value
2018-06-01T00:01:05.959Z,44.97
2018-06-01T00:03:33.360Z,41.50
2018-06-01T00:06:00.750Z,44.80
2018-06-01T00:08:29.112Z,43.53
2018-06-01T00:10:56.503Z,43.30
2018-06-01T00:13:23.890Z,40.43
2018-06-01T00:15:51.518Z,40.20
2018-06-01T00:18:18.911Z,38.87
2018-06-01T00:20:46.296Z,39.27
2018-06-01T00:23:13.715Z,36.77
2018-06-01T00:25:41.098Z,44.83
2018-06-01T00:28:08.487Z,42.40
2018-06-01T00:30:35.919Z,39.10
2018-06-01T00:33:03.303Z,47.63
2018-06-01T00:35:30.695Z,44.80
2018-06-01T00:37:58.087Z,49.13
2018-06-01T00:40:25.479Z,49.27
2018-06-01T00:42:52.866Z,53.10
2018-06-01T00:45:20.259Z,54.57
2018-06-01T00:47:47.662Z,48.80
2018-06-01T00:50:15.047Z,50.10
2018-06-01T00:52:42.439Z,52.43
2018-06-01T00:55:21.678Z,41.63
2018-06-01T00:57:49.067Z,43.00
2018-06-01T01:00:16.450Z,46.40
2018-06-01T01:02:43.847Z,45.93
2018-06-01T01:05:11.235Z,48.33
2018-06-01T01:07:38.631Z,44.90
2018-06-01T01:10:06.029Z,44.27
2018-06-01T01:12:33.434Z,46.80
2018-06-01T01:15:00.823Z,49.30
2018-06-01T01:17:28.220Z,46.53
2018-06-01T01:19:55.602Z,45.03
2018-06-01T01:22:23.003Z,48.90
2018-06-01T01:24:50.395Z,52.83
2018-06-01T01:27:17.798Z,50.03
2018-06-01T01:29:45.207Z,46.47
2018-06-01T01:32:12.592Z,45.97
2018-06-01T01:34:39.988Z,41.90
2018-06-01T01:37:07.383Z,46.77
2018-06-01T01:39:34.774Z,40.80
2018-06-01T01:42:02.158Z,42.70
2018-06-01T01:44:29.555Z,45.47
2018-06-01T01:46:56.951Z,45.03
2018-06-01T01:49:24.342Z,39.17
2018-06-01T01:51:51.722Z,43.37
2018-06-01T01:54:19.120Z,45.93
2018-06-01T01:56:46.513Z,48.10
2018-06-01T01:59:13.912Z,41.10
2018-06-01T02:01:41.299Z,42.40
2018-06-01T02:04:08.690Z,42.27
2018-06-01T02:06:36.083Z,45.93
2018-06-01T02:09:03.475Z,49.83
2018-06-01T02:11:30.884Z,49.80
2018-06-01T02:13:58.277Z,48.00
2018-06-01T02:16:25.691Z,51.60
2018-06-01T02:18:53.075Z,52.10
2018-06-01T02:21:20.472Z,52.60
2018-06-01T02:23:47.859Z,51.27
2018-06-01T02:26:15.255Z,53.37
2018-06-01T02:28:42.643Z,52.33
2018-06-01T02:31:10.043Z,55.43
2018-06-01T02:33:37.436Z,51.67
2018-06-01T02:36:04.838Z,51.80
2018-06-01T02:38:32.224Z,42.57
2018-06-01T02:40:59.620Z,40.47
2018-06-01T02:43:27.018Z,44.60
2018-06-01T02:45:54.410Z,45.10
2018-06-01T02:48:21.795Z,48.03
2018-06-01T02:50:49.178Z,50.63
2018-06-01T02:53:16.567Z,52.30
2018-06-01T02:55:43.951Z,49.67
2018-06-01T02:58:11.345Z,52.63
2018-06-01T03:00:38.731Z,49.47
2018-06-01T03:03:06.119Z,49.60
2018-06-01T03:05:33.523Z,46.97
2018-06-01T03:08:00.915Z,43.43
2018-06-01T03:10:28.306Z,44.33
2018-06-01T03:12:55.702Z,41.73
2018-06-01T03:15:23.091Z,42.00
2018-06-01T03:17:50.500Z,40.60
2018-06-01T03:20:17.882Z,44.47
2018-06-01T03:22:45.271Z,46.83
2018-06-01T03:25:12.667Z,47.13
2018-06-01T03:27:40.056Z,41.77
2018-06-01T03:30:07.443Z,44.67
2018-06-01T03:32:34.847Z,47.40
2018-06-01T03:35:02.274Z,39.20
2018-06-01T03:37:29.635Z,46.23
2018-06-01T03:39:57.023Z,40.23
2018-06-01T03:42:24.419Z,42.77
2018-06-01T03:44:51.802Z,45.70
2018-06-01T03:47:19.205Z,44.13
2018-06-01T03:49:46.595Z,43.70
2018-06-01T03:52:13.992Z,40.33
2018-06-01T03:54:41.379Z,36.83
2018-06-01T03:57:08.767Z,25.97
2018-06-01T03:59:36.167Z,26.23
2018-06-01T04:02:03.555Z,22.90
2018-06-01T04:04:30.951Z,22.53
2018-06-01T04:06:58.362Z,23.40
2018-06-01T04:09:28.723Z,19.20
2018-06-01T04:11:56.110Z,20.47
2018-06-01T04:14:23.498Z,20.60
2018-06-01T04:16:50.935Z,20.83
2018-06-01T04:19:18.339Z,19.40
2018-06-01T04:21:45.714Z,22.23
2018-06-01T04:24:13.106Z,22.97
2018-06-01T04:26:40.500Z,22.60
2018-06-01T04:29:07.895Z,23.77
2018-06-01T04:31:35.319Z,24.33
2018-06-01T04:34:02.711Z,23.03
2018-06-01T04:36:30.122Z,22.37
2018-06-01T04:38:57.510Z,22.43
2018-06-01T04:41:25.094Z,21.23
2018-06-01T04:43:52.490Z,21.80
2018-06-01T04:46:19.896Z,20.67
2018-06-01T04:48:47.282Z,20.30
2018-06-01T04:51:14.687Z,21.17
2018-06-01T04:53:42.071Z,20.87
2018-06-01T04:56:09.489Z,19.97
2018-06-01T04:58:36.863Z,20.73
2018-06-01T05:01:04.259Z,20.03
2018-06-01T05:03:31.656Z,22.53
2018-06-01T05:05:59.039Z,22.27
2018-06-01T05:08:26.434Z,22.53
2018-06-01T05:10:53.842Z,22.63
2018-06-01T05:13:21.227Z,23.70
2018-06-01T05:15:48.914Z,23.20
2018-06-01T05:18:16.310Z,22.20
2018-06-01T05:20:43.703Z,21.53
2018-06-01T05:23:11.115Z,22.20
2018-06-01T05:25:38.507Z,21.43
2018-06-01T05:28:05.898Z,21.07
2018-06-01T05:30:33.298Z,22.37
2018-06-01T05:33:00.693Z,23.63
2018-06-01T05:35:28.145Z,26.37
2018-06-01T05:37:55.492Z,25.07
2018-06-01T05:40:22.886Z,29.07
2018-06-01T05:42:50.304Z,26.80
2018-06-01T05:45:17.698Z,29.30
2018-06-01T05:47:45.091Z,31.43
2018-06-01T05:50:12.872Z,34.13
2018-06-01T05:52:40.263Z,33.13
2018-06-01T05:55:07.655Z,35.93
2018-06-01T05:57:35.060Z,35.73
2018-06-01T06:00:02.451Z,34.07
2018-06-01T06:02:29.856Z,36.53
2018-06-01T06:04:57.252Z,38.20
2018-06-01T06:07:24.646Z,38.20
2018-06-01T06:09:52.039Z,43.00
2018-06-01T06:12:19.446Z,41.90
2018-06-01T06:14:46.839Z,47.50
2018-06-01T06:17:14.234Z,49.20
2018-06-01T06:19:41.627Z,54.17
2018-06-01T06:22:09.032Z,55.17
2018-06-01T06:24:36.438Z,57.33
2018-06-01T06:27:03.831Z,61.37
2018-06-01T06:29:31.238Z,56.47
2018-06-01T06:31:58.627Z,60.87
2018-06-01T06:34:26.039Z,60.00
2018-06-01T06:36:53.432Z,64.50
2018-06-01T06:39:20.831Z,70.37
2018-06-01T06:41:48.229Z,65.13
2018-06-01T06:44:15.623Z,64.17
2018-06-01T06:46:43.035Z,60.67
2018-06-01T06:49:10.439Z,63.17
2018-06-01T06:51:37.835Z,60.43
2018-06-01T06:54:05.231Z,62.73
2018-06-01T06:56:32.631Z,58.70
2018-06-01T06:59:00.019Z,55.00
2018-06-01T07:01:27.423Z,54.20
2018-06-01T07:03:54.810Z,51.37
2018-06-01T07:06:22.207Z,49.97
2018-06-01T07:08:49.610Z,49.50
2018-06-01T07:11:17.079Z,50.60
2018-06-01T07:13:44.474Z,54.83
2018-06-01T07:16:11.867Z,52.67
2018-06-01T07:18:39.264Z,51.10
2018-06-01T07:21:06.664Z,51.93
2018-06-01T07:23:34.062Z,51.63
2018-06-01T07:26:01.447Z,53.10
2018-06-01T07:28:28.853Z,53.33
2018-06-01T07:30:56.242Z,56.67
2018-06-01T07:33:23.670Z,60.77
2018-06-01T07:35:51.047Z,53.57
2018-06-01T07:38:18.479Z,53.73
2018-06-01T07:40:45.874Z,51.87
2018-06-01T07:43:13.267Z,54.73
2018-06-01T07:45:40.667Z,57.07
2018-06-01T07:48:08.071Z,50.87
2018-06-01T07:50:35.467Z,51.17
2018-06-01T07:53:02.858Z,51.97
2018-06-01T07:55:30.266Z,47.33
2018-06-01T07:57:57.653Z,51.00
2018-06-01T08:00:25.051Z,45.70
2018-06-01T08:02:52.447Z,44.23
2018-06-01T08:05:19.859Z,42.40
2018-06-01T08:07:47.239Z,39.17
2018-06-01T08:10:14.636Z,39.83
2018-06-01T08:12:42.051Z,39.00
2018-06-01T08:15:09.472Z,40.97
2018-06-01T08:17:36.867Z,39.60
2018-06-01T08:20:04.267Z,33.93
2018-06-01T08:22:31.663Z,34.13
2018-06-01T08:24:59.055Z,38.97
2018-06-01T08:27:26.666Z,34.53
2018-06-01T08:29:54.059Z,35.10
2018-06-01T08:32:21.508Z,38.47
2018-06-01T08:34:48.875Z,39.97
2018-06-01T08:37:16.311Z,42.00
2018-06-01T08:39:43.687Z,42.13
2018-06-01T08:42:11.100Z,41.17
2018-06-01T08:44:38.495Z,44.23
2018-06-01T08:47:05.891Z,44.10
2018-06-01T08:49:33.287Z,45.20
2018-06-01T08:52:00.682Z,49.47
2018-06-01T08:54:28.078Z,46.27
2018-06-01T08:56:55.479Z,46.47
2018-06-01T08:59:22.871Z,48.30
2018-06-01T09:01:50.263Z,50.50
2018-06-01T09:04:17.663Z,49.47
2018-06-01T09:06:45.052Z,51.27
2018-06-01T09:09:12.618Z,49.60
2018-06-01T09:11:40.010Z,51.20
2018-06-01T09:14:07.399Z,49.60
2018-06-01T09:16:34.798Z,50.43
2018-06-01T09:19:02.190Z,50.23
2018-06-01T09:21:29.596Z,52.10
2018-06-01T09:23:56.984Z,50.20
2018-06-01T09:26:24.378Z,53.90
2018-06-01T09:28:51.771Z,49.37
2018-06-01T09:31:19.171Z,50.53
2018-06-01T09:33:46.566Z,50.70
2018-06-01T09:36:13.966Z,51.73
2018-06-01T09:38:41.355Z,53.07
2018-06-01T09:41:08.754Z,50.70
2018-06-01T09:43:36.164Z,52.07
2018-06-01T09:46:03.556Z,52.73
2018-06-01T09:48:31.115Z,50.60
2018-06-01T09:50:58.509Z,52.50
2018-06-01T09:53:25.911Z,53.17
2018-06-01T09:55:53.303Z,51.03
2018-06-01T09:58:20.702Z,49.77
2018-06-01T10:00:53.783Z,55.43
2018-06-01T10:03:21.178Z,55.17
2018-06-01T10:05:48.575Z,54.73
2018-06-01T10:08:15.983Z,56.20
2018-06-01T10:10:43.376Z,53.57
2018-06-01T10:13:10.779Z,56.03
2018-06-01T10:15:38.220Z,57.43
2018-06-01T10:18:05.598Z,57.40
2018-06-01T10:20:35.629Z,57.37
2018-06-01T10:23:03.022Z,55.93
2018-06-01T10:25:30.426Z,56.53
2018-06-01T10:27:58.290Z,55.17
2018-06-01T10:30:25.715Z,54.40
2018-06-01T10:32:53.121Z,51.83
2018-06-01T10:35:20.490Z,51.87
2018-06-01T10:37:47.890Z,48.30
2018-06-01T10:40:15.283Z,49.83
2018-06-01T10:42:42.687Z,44.97
2018-06-01T10:45:10.129Z,44.97
2018-06-01T10:47:37.475Z,45.50
2018-06-01T10:50:04.871Z,44.97
2018-06-01T10:52:32.267Z,43.30
2018-06-01T10:54:59.659Z,43.97
2018-06-01T10:57:27.054Z,46.90
2018-06-01T10:59:54.448Z,45.53
2018-06-01T11:02:21.851Z,45.67
2018-06-01T11:04:49.246Z,47.53
2018-06-01T11:07:16.651Z,46.60
2018-06-01T11:09:44.047Z,46.40
2018-06-01T11:12:11.504Z,43.60
2018-06-01T11:14:38.899Z,44.57
2018-06-01T11:17:06.304Z,51.40
2018-06-01T11:19:33.700Z,47.43
2018-06-01T11:22:01.099Z,48.83
2018-06-01T11:24:28.503Z,43.00
2018-06-01T11:26:55.941Z,42.57
2018-06-01T11:29:23.302Z,39.03
2018-06-01T11:31:50.698Z,44.90
2018-06-01T11:34:18.102Z,48.93
2018-06-01T11:36:45.495Z,60.20
2018-06-01T11:39:12.896Z,59.03
2018-06-01T11:41:40.287Z,55.83
2018-06-01T11:44:07.682Z,62.70
2018-06-01T11:46:35.080Z,67.17
2018-06-01T11:49:02.470Z,65.47
2018-06-01T11:51:29.921Z,65.33
2018-06-01T11:53:57.259Z,70.47
2018-06-01T11:56:24.651Z,67.60
2018-06-01T11:58:52.046Z,72.23
2018-06-01T12:01:19.447Z,70.13
2018-06-01T12:03:46.844Z,67.77
2018-06-01T12:06:14.239Z,71.43
2018-06-01T12:08:41.637Z,71.30
2018-06-01T12:11:09.031Z,73.07
2018-06-01T12:13:36.427Z,70.57
2018-06-01T12:16:03.822Z,73.57
2018-06-01T12:18:31.223Z,73.87
2018-06-01T12:20:58.694Z,72.20
2018-06-01T12:23:26.102Z,68.90
2018-06-01T12:25:53.674Z,48.47
2018-06-01T12:28:21.076Z,39.17
2018-06-01T12:30:50.054Z,35.47
2018-06-01T12:33:17.467Z,41.30
2018-06-01T12:35:44.867Z,39.83
2018-06-01T12:38:12.327Z,39.50
2018-06-01T12:40:39.729Z,41.50
2018-06-01T12:43:07.122Z,39.20
2018-06-01T12:45:34.520Z,39.00
2018-06-01T12:48:02.920Z,36.40
2018-06-01T12:50:30.318Z,39.03
2018-06-01T12:52:57.751Z,35.80
2018-06-01T12:55:25.159Z,35.27
2018-06-01T12:57:52.555Z,35.60
2018-06-01T13:00:20.245Z,32.33
2018-06-01T13:02:47.763Z,31.70
2018-06-01T13:05:15.150Z,33.20
2018-06-01T13:07:42.552Z,33.23
2018-06-01T13:10:09.940Z,30.50
2018-06-01T13:12:37.346Z,30.13
2018-06-01T13:15:04.728Z,29.30
2018-06-01T13:17:32.183Z,30.47
2018-06-01T13:19:59.615Z,29.23
2018-06-01T13:22:27.011Z,30.00
2018-06-01T13:24:54.406Z,29.33
2018-06-01T13:27:21.858Z,28.93
2018-06-01T13:29:49.289Z,27.90
2018-06-01T13:32:16.663Z,29.33
2018-06-01T13:34:44.057Z,31.03
2018-06-01T13:37:11.482Z,30.90
2018-06-01T13:39:38.897Z,30.83
2018-06-01T13:42:06.271Z,29.57
2018-06-01T13:44:33.667Z,31.90
2018-06-01T13:47:01.067Z,31.87
2018-06-01T13:49:28.475Z,30.33
2018-06-01T13:51:55.925Z,30.93
2018-06-01T13:54:23.356Z,32.20
2018-06-01T13:56:50.798Z,31.63
2018-06-01T13:59:18.611Z,32.37
2018-06-01T14:01:45.998Z,34.93
2018-06-01T14:04:13.426Z,34.23
2018-06-01T14:06:40.825Z,36.20
2018-06-01T14:09:08.243Z,38.30
2018-06-01T14:11:35.643Z,36.13
2018-06-01T14:14:03.031Z,36.43
2018-06-01T14:16:30.431Z,36.37
2018-06-01T14:18:57.836Z,36.30
2018-06-01T14:21:25.260Z,36.60
2018-06-01T14:23:52.688Z,37.93
2018-06-01T14:26:20.078Z,36.10
2018-06-01T14:28:47.477Z,37.67
2018-06-01T14:31:14.867Z,38.70
2018-06-01T14:33:42.284Z,37.73
2018-06-01T14:36:09.675Z,39.60
2018-06-01T14:38:37.072Z,40.23
2018-06-01T14:41:04.460Z,39.60
2018-06-01T14:43:31.855Z,38.27
2018-06-01T14:45:59.247Z,40.40
2018-06-01T14:48:26.654Z,41.10
2018-06-01T14:50:54.060Z,40.57
2018-06-01T14:53:21.452Z,40.90
2018-06-01T14:55:48.864Z,41.90
2018-06-01T14:58:16.252Z,42.97
2018-06-01T15:00:43.656Z,41.97
2018-06-01T15:03:11.051Z,44.97
2018-06-01T15:05:38.443Z,44.37
2018-06-01T15:08:05.842Z,42.33
2018-06-01T15:10:33.241Z,44.73
2018-06-01T15:13:00.637Z,46.23
2018-06-01T15:15:28.035Z,45.73
2018-06-01T15:17:55.430Z,49.53
2018-06-01T15:20:22.848Z,49.43
2018-06-01T15:22:50.231Z,53.60
2018-06-01T15:25:17.632Z,53.43
2018-06-01T15:27:45.023Z,52.40
2018-06-01T15:30:12.583Z,55.70
2018-06-01T15:32:39.991Z,56.83
2018-06-01T15:35:07.407Z,55.50
2018-06-01T15:37:34.801Z,56.10
2018-06-01T15:40:02.224Z,57.10
2018-06-01T15:42:29.630Z,55.53
2018-06-01T15:44:57.021Z,57.10
2018-06-01T15:47:24.435Z,56.80
2018-06-01T15:49:51.864Z,52.77
2018-06-01T15:52:19.256Z,54.30
2018-06-01T15:54:46.666Z,52.10
2018-06-01T15:57:14.069Z,52.10
2018-06-01T15:59:41.496Z,53.00
2018-06-01T16:02:08.896Z,50.93
2018-06-01T16:04:36.307Z,50.77
2018-06-01T16:07:03.703Z,50.07
2018-06-01T16:09:31.100Z,50.73
2018-06-01T16:11:58.495Z,50.80
2018-06-01T16:14:25.920Z,50.70
2018-06-01T16:16:53.483Z,47.90
2018-06-01T16:19:20.875Z,49.83
2018-06-01T16:21:48.284Z,48.47
2018-06-01T16:24:15.693Z,48.50
2018-06-01T16:26:43.087Z,47.40
2018-06-01T16:29:10.491Z,47.77
2018-06-01T16:31:37.896Z,45.20
2018-06-01T16:34:05.299Z,44.87
2018-06-01T16:36:32.915Z,45.07
2018-06-01T16:39:00.312Z,41.10
2018-06-01T16:41:27.739Z,38.77
2018-06-01T16:43:55.147Z,39.77
2018-06-01T16:46:22.541Z,38.93
2018-06-01T16:48:49.944Z,37.60
2018-06-01T16:51:17.338Z,37.43
2018-06-01T16:53:44.756Z,34.03
2018-06-01T16:56:12.150Z,31.90
2018-06-01T16:58:39.560Z,30.27
2018-06-01T17:01:06.955Z,30.30
2018-06-01T17:03:34.448Z,30.53
2018-06-01T17:06:01.892Z,30.00
2018-06-01T17:08:29.343Z,29.47
2018-06-01T17:10:56.934Z,29.23
2018-06-01T17:13:24.331Z,30.30
2018-06-01T17:15:51.731Z,29.40
2018-06-01T17:18:19.136Z,29.63
2018-06-01T17:20:46.555Z,29.93
2018-06-01T17:23:13.950Z,29.43
2018-06-01T17:25:41.355Z,28.87
2018-06-01T17:28:09.132Z,28.70
2018-06-01T17:30:36.526Z,29.73
2018-06-01T17:33:03.923Z,30.13
2018-06-01T17:35:31.320Z,29.07
2018-06-01T17:37:58.734Z,28.63
2018-06-01T17:40:26.123Z,28.87
2018-06-01T17:42:53.523Z,29.90
2018-06-01T17:45:20.923Z,29.70
2018-06-01T17:47:48.326Z,29.30
2018-06-01T17:50:15.722Z,29.40
2018-06-01T17:52:43.118Z,30.73
2018-06-01T17:55:10.951Z,29.50
2018-06-01T17:57:38.343Z,32.73
2018-06-01T18:00:05.807Z,32.17
2018-06-01T18:02:33.134Z,32.90
2018-06-01T18:05:00.527Z,32.43
2018-06-01T18:07:27.922Z,34.70
2018-06-01T18:09:55.319Z,34.53
2018-06-01T18:12:22.715Z,36.40
2018-06-01T18:14:50.141Z,36.97
2018-06-01T18:17:17.530Z,35.97
2018-06-01T18:19:44.931Z,37.10
2018-06-01T18:22:12.339Z,38.30
2018-06-01T18:24:39.734Z,38.57
2018-06-01T18:27:07.214Z,39.77
2018-06-01T18:29:34.611Z,41.70
2018-06-01T18:32:02.067Z,39.17
2018-06-01T18:34:29.457Z,41.57
2018-06-01T18:36:56.859Z,42.90
2018-06-01T18:39:24.249Z,43.20
2018-06-01T18:41:51.849Z,43.20
2018-06-01T18:44:19.219Z,45.30
2018-06-01T18:46:46.619Z,44.10
2018-06-01T18:49:14.016Z,44.13
2018-06-01T18:51:41.404Z,46.63
2018-06-01T18:54:08.798Z,46.83
2018-06-01T18:56:36.196Z,47.73
2018-06-01T18:59:03.594Z,51.40
2018-06-01T19:01:31.004Z,50.00
2018-06-01T19:03:58.398Z,49.53
2018-06-01T19:06:25.795Z,52.87
2018-06-01T19:08:53.187Z,53.70
2018-06-01T19:11:20.597Z,48.43
2018-06-01T19:13:47.985Z,52.40
2018-06-01T19:16:15.382Z,51.53
2018-06-01T19:18:42.778Z,51.57
2018-06-01T19:21:10.179Z,56.00
2018-06-01T19:23:37.575Z,55.93
2018-06-01T19:26:04.959Z,57.60
2018-06-01T19:28:33.638Z,54.47
2018-06-01T19:31:01.031Z,54.47
2018-06-01T19:33:28.481Z,54.90
2018-06-01T19:35:55.857Z,56.90
2018-06-01T19:38:23.650Z,57.80
2018-06-01T19:40:51.050Z,57.43
2018-06-01T19:43:18.451Z,57.53
2018-06-01T19:45:45.846Z,55.40
2018-06-01T19:48:13.234Z,57.27
2018-06-01T19:50:40.643Z,59.37
2018-06-01T19:53:08.040Z,56.97
2018-06-01T19:55:35.440Z,54.73
2018-06-01T19:58:02.841Z,58.13
2018-06-01T20:00:30.251Z,59.07
2018-06-01T20:02:57.649Z,56.10
2018-06-01T20:05:25.043Z,61.17
2018-06-01T20:07:52.455Z,58.50
2018-06-01T20:10:19.853Z,59.47
2018-06-01T20:12:47.255Z,58.60
2018-06-01T20:15:14.652Z,62.70
2018-06-01T20:17:42.062Z,62.67
2018-06-01T20:20:09.455Z,60.20
2018-06-01T20:22:36.868Z,61.87
2018-06-01T20:25:04.315Z,65.20
2018-06-01T20:27:31.714Z,63.57
2018-06-01T20:29:59.115Z,67.10
2018-06-01T20:32:26.508Z,68.33
2018-06-01T20:34:53.910Z,65.90
2018-06-01T20:37:21.307Z,63.40
2018-06-01T20:39:48.708Z,63.93
2018-06-01T20:42:16.099Z,70.60
2018-06-01T20:44:43.490Z,68.97
2018-06-01T20:47:10.955Z,67.10
2018-06-01T20:49:38.354Z,68.37
2018-06-01T20:52:05.749Z,70.17
2018-06-01T20:54:33.139Z,66.50
2018-06-01T20:57:00.534Z,68.90
2018-06-01T20:59:27.922Z,65.80
2018-06-01T21:01:55.358Z,70.90
2018-06-01T21:04:22.755Z,69.67
2018-06-01T21:06:50.161Z,71.07
2018-06-01T21:09:17.555Z,71.47
2018-06-01T21:11:44.969Z,69.67
2018-06-01T21:14:12.372Z,68.90
2018-06-01T21:16:39.766Z,68.47
2018-06-01T21:19:07.163Z,67.17
2018-06-01T21:21:34.853Z,70.57
2018-06-01T21:24:02.252Z,73.60
2018-06-01T21:26:29.639Z,69.60
2018-06-01T21:28:57.037Z,71.00
2018-06-01T21:31:24.427Z,74.27
2018-06-01T21:33:51.827Z,71.63
2018-06-01T21:36:19.220Z,73.20
2018-06-01T21:38:46.631Z,70.97
2018-06-01T21:41:14.023Z,71.50
2018-06-01T21:43:41.415Z,70.40
2018-06-01T21:46:08.812Z,75.47
2018-06-01T21:48:36.211Z,67.50
2018-06-01T21:51:03.612Z,69.47
2018-06-01T21:53:30.999Z,71.80
2018-06-01T21:55:58.405Z,71.80
2018-06-01T21:58:25.798Z,71.83
2018-06-01T22:00:53.210Z,71.60
2018-06-01T22:03:20.602Z,70.93
2018-06-01T22:05:47.999Z,77.23
2018-06-01T22:08:15.408Z,74.23
2018-06-01T22:10:42.798Z,69.13
2018-06-01T22:13:10.196Z,70.93
2018-06-01T22:15:37.598Z,73.40
2018-06-01T22:18:04.995Z,71.80
2018-06-01T22:20:32.394Z,69.70
2018-06-01T22:22:59.814Z,72.60
2018-06-01T22:25:27.213Z,74.20
2018-06-01T22:27:55.068Z,73.37
2018-06-01T22:30:22.471Z,73.17
2018-06-01T22:32:50.035Z,74.27
2018-06-01T22:35:17.439Z,75.43
2018-06-01T22:37:44.894Z,75.90
2018-06-01T22:40:12.300Z,76.77
2018-06-01T22:42:39.695Z,75.87
2018-06-01T22:45:07.091Z,74.10
2018-06-01T22:47:34.590Z,78.80
2018-06-01T22:50:01.987Z,74.00
2018-06-01T22:52:29.387Z,78.43
2018-06-01T22:54:56.783Z,76.10
2018-06-01T22:57:24.182Z,76.90
2018-06-01T22:59:51.582Z,74.33
2018-06-01T23:02:18.976Z,69.60
2018-06-01T23:04:46.377Z,74.97
2018-06-01T23:07:13.771Z,77.40
2018-06-01T23:09:41.170Z,73.00
2018-06-01T23:12:08.568Z,70.57
2018-06-01T23:14:36.005Z,73.50
2018-06-01T23:17:03.371Z,79.93
2018-06-01T23:19:30.922Z,74.93
2018-06-01T23:21:58.327Z,78.67
2018-06-01T23:24:25.839Z,80.53
2018-06-01T23:26:53.246Z,77.77
2018-06-01T23:29:20.647Z,79.47
2018-06-01T23:31:48.059Z,77.07
2018-06-01T23:34:15.442Z,81.20
2018-06-01T23:36:42.899Z,80.70
2018-06-01T23:39:10.295Z,79.57
2018-06-01T23:41:37.708Z,80.13
2018-06-01T23:44:05.108Z,76.43
2018-06-01T23:46:32.498Z,77.00
2018-06-01T23:48:59.899Z,81.00
2018-06-01T23:51:27.298Z,76.60
2018-06-01T23:53:54.742Z,80.93
2018-06-01T23:56:22.138Z,79.33
2018-06-01T23:58:49.531Z,80.87
